Sand Point, AK

5:11 AM AKST on December 06, 2016 (GMT -0900)
Sand Point | | Change Station

Elev 23 ft 55.31 °N, 160.52 °W | Updated 15 minutes ago

Scattered Clouds
Scattered Clouds
37 °F
Feels Like 30 °F
N
10
Wind Variable Wind from West

Today
High -- | Low -- °F
--% Chance of Precip.
Yesterday
High -- | Low -- °F
Precip. -- in
Pressure 30.17 in
Visibility 10.0 miles
Clouds Few 4300 ft
Scattered Clouds 4900 ft
Windchill 30 °F
Dew Point 34 °F
Humidity 87%
Rainfall 0.00 in
Snow Depth Not available.
9:53 AM 5:13 PM
Waxing Crescent, 42% visible
METAR PASD 061356Z AUTO 28009KT 10SM FEW043 SCT049 03/01 A3017 RMK AO1
Pressure 30.17 in
Visibility 10.0 miles
Clouds Few 4300 ft
Scattered Clouds 4900 ft
Windchill 30 °F
Dew Point 34 °F
Humidity 87%
Rainfall 0.00 in
Snow Depth Not available.
9:53 AM 5:13 PM
Waxing Crescent, 42% visible
METAR PASD 061356Z AUTO 28009KT 10SM FEW043 SCT049 03/01 A3017 RMK AO1

10-Day Weather Forecast

Almanac

Astronomy

Dec. 06, 2016 Rise Set
Actual Time
Civil Twilight
Nautical Twilight
Astronomical Twilight
Moon
Length of Visible Light
Length of Day
Tomorrow will be .
, % of the Moon is Illuminated

Today's Extremes

State Highs State Lows

Community

WunderPhotos

Upload Photos

1,955,944 photos uploaded!

WunderBlog® & News

Nearby

Air Quality

  Air Quality AQ Index Pollutant
Not available.

Snow Depth

Station Depth Elevation

Earthquake Activity

City Distance Mag. Time & Date
Minimum magnitude displayed is 2.5.

Coastal Water Temperatures

Place Temperature

Stations

Nearby Weather Stations

Station Location Temp. Windchill Dew Point Humidity Wind Precip. Elev Updated Type
                   

Watches & Warnings

There are currently no watches in effect.